Aviation Digital Data Service (ADDS)

Output produced by METARs form (1045 UTC 24 April 2018)
found at http://aviationweather.gov/adds/metars/
 
KPIT 240855Z 2409/2512 12008KT P6SM -RA OVC060 
     FM241500 12012G19KT 5SM -RA OVC040 
     FM250000 10012KT P6SM VCSH OVC025 
     FM250700 06006KT P6SM VCSH OVC008